This is the latest recevied weather packets stored in our database for station/object NM5PB. If no packets are shown the sender has not sent any weather packets the latest 10 day(s).
| Time | Temp. | Humidity | Pressure | Rain* | Wind** | Luminosity | Snow |
|---|---|---|---|---|---|---|---|
| 1777729864 | 8.33° C | 72% | - | 0 mm | - | - | - |
| 1777729264 | 7.78° C | 75% | - | 0 mm | - | - | - |
| 1777728664 | 7.22° C | 76% | - | 0 mm | - | - | - |
| 1777728064 | 6.67° C | 79% | - | 0 mm | - | - | - |
| 1777727464 | 5.56° C | 81% | - | 0 mm | - | - | - |
| 1777726864 | 4.44° C | 84% | - | 0 mm | - | - | - |
| 1777726264 | 3.33° C | 87% | - | 0 mm | - | - | - |
| 1777725664 | 2.22° C | 91% | - | 0 mm | - | - | - |
| 1777725064 | 1.67° C | 94% | - | 0 mm | - | - | - |
| 1777724464 | 1.11° C | 94% | - | 0 mm | - | - | - |
| 1777723864 | 0.56° C | 94% | - | 0 mm | - | - | - |
| 1777723264 | 0° C | 94% | - | 0 mm | - | - | - |
| 1777722664 | -0.56° C | 94% | - | 0 mm | - | - | - |
| 1777722064 | -0.56° C | 94% | - | 0 mm | - | - | - |
| 1777721464 | -0.56° C | 94% | - | 0 mm | - | - | - |
| 1777720864 | -0.56° C | 94% | - | 0 mm | - | - | - |
| 1777720264 | -0.56° C | 93% | - | 0 mm | - | - | - |
| 1777719664 | -0.56° C | 93% | - | 0 mm | - | - | - |
| 1777719064 | -0.56° C | 93% | - | 0 mm | - | - | - |
| 1777718464 | -0.56° C | 93% | - | 0 mm | - | - | - |
| 1777717864 | -0.56° C | 93% | - | 0 mm | - | - | - |
| 1777717264 | -0.56° C | 93% | - | 0 mm | - | - | - |
| 1777716664 | -0.56° C | 92% | - | 0 mm | - | - | - |
| 1777716064 | 0° C | 92% | - | 0 mm | - | - | - |
| 1777715464 | 0° C | 91% | - | 0 mm | - | - | - |
* Rain latest hour (hover to see other rain measurements)
** Current wind speed in m/s (hover to see current wind gust speed)